Startpagina
METAR-TAF:

METAR-TAF

Vliegvelden :

Aéroport International de Limoges

Limoges, Frankrijk

breedte: 45-52N, lengte: 001-11E, hoogte: 396 m

Actueel weer

Dit bericht is 33 minuten geleden gemaakt, om 09:30 UTC
Wind 15 kt uit het oostnoordoosten, variërend tussen het noordoosten en het oosten
Temperatuur 21°C
Vochtigheid 40%
Druk 1023 hPa
Zicht 10 km of meer
geen wolken onder 1500 m en geen cumulonimbus

METAR: LFBL 120930Z AUTO 06015KT 040V100 CAVOK 21/07 Q1023 NOSIG

Tijdstip: 12:03 (10:03 UTC)

Verwachting

Dit bericht is 5 uur en het 3 minuten geleden gemaakt, om 05:00 UTC
Verwachting geldig van 12 om 06 UTC tot 13 om 06 UTC
Wind 10 kt uit het noordoosten
Zicht 10 km of meer
geen wolken onder 1500 m en geen cumulonimbus

TAF: LFBL 120500Z 1206/1306 05010KT CAVOK

Waarnemingen en weersverwachtingen van meer dan 4000 vliegvelden (METAR en TAF).

De beschikbare stations zijn de gele en rode punten op de kaart.

Ga met uw muis naar het station om de naam te zien.

Klik dan om waarnemingen en weersverwachtingen te zien.

kaart wijzigen: klik op de groene knoppen met een zwart kruis om in te zoomen, op de groene knop met een streepje om uit te zoomen of op de groene pijlen voor aangrenzende kaarten.


METAR-TAF: